This is the latest recevied weather packets stored in our database for station/object KE0PRS. If no packets are shown the sender has not sent any weather packets the latest 10 day(s).
| Time | Temp. | Humidity | Pressure | Rain* | Wind** | Luminosity | Snow |
|---|---|---|---|---|---|---|---|
| 1787399497 | 22.78° C | 87% | 1018 hPa | 0 mm | - | 0 W/m² | - |
| 1787399195 | 22.22° C | 86% | 1017.8 hPa | 0 mm | - | 0 W/m² | - |
| 1787398890 | 22.22° C | 86% | 1017.8 hPa | 0 mm | - | 0 W/m² | - |
| 1787398586 | 22.22° C | 86% | 1018 hPa | 0 mm | - | 0 W/m² | - |
| 1787398282 | 22.22° C | 86% | 1018 hPa | 0 mm | - | 0 W/m² | - |
| 1787397977 | 22.78° C | 86% | 1017.6 hPa | 0 mm | - | 0 W/m² | - |
| 1787397672 | 22.78° C | 85% | 1017.7 hPa | 1.78 mm | - | 0 W/m² | - |
| 1787397372 | 22.78° C | 83% | 1018 hPa | 1.78 mm | - | 0 W/m² | - |
| 1787397067 | 22.78° C | 83% | 1018.3 hPa | 0 mm | - | 0 W/m² | - |
| 1787396763 | 23.33° C | 81% | 1018.4 hPa | 4.32 mm | - | 0 W/m² | - |
| 1787396459 | 23.89° C | 78% | 1018.3 hPa | 10.67 mm | - | 0 W/m² | - |
| 1787396158 | 24.44° C | 75% | 1018.9 hPa | 6.6 mm | - | 0 W/m² | - |
| 1787395853 | 25° C | 73% | 1019.1 hPa | 0 mm | - | 0 W/m² | - |
| 1787395548 | 25.56° C | 71% | 1019.4 hPa | 0 mm | - | 0 W/m² | - |
| 1787395248 | 26.67° C | 67% | 1019.4 hPa | 0 mm | - | 0 W/m² | - |
| 1787394948 | 26.67° C | 61% | 1019.3 hPa | 0 mm | - | 0 W/m² | - |
| 1787394645 | 27.22° C | 59% | 1019 hPa | 0 mm | - | 0 W/m² | - |
| 1787394340 | 26.67° C | 59% | 1018.7 hPa | 0 mm | - | 0 W/m² | - |
| 1787394035 | 25.56° C | 63% | 1018.7 hPa | 0 mm | - | 0 W/m² | - |
| 1787393734 | 25.56° C | 67% | 1018.9 hPa | 0 mm | - | 0 W/m² | - |
| 1787393430 | 25° C | 67% | 1018.5 hPa | 0 mm | - | 0 W/m² | - |
| 1787393125 | 25° C | 68% | 1018 hPa | 0 mm | - | 0 W/m² | - |
| 1787392820 | 25° C | 69% | 1017.7 hPa | 0 mm | - | 0 W/m² | - |
| 1787392519 | 25° C | 69% | 1017.6 hPa | 0 mm | - | 0 W/m² | - |
| 1787392214 | 25° C | 69% | 1017.6 hPa | 0 mm | - | 0 W/m² | - |
* Rain latest hour (hover to see other rain measurements)
** Current wind speed in m/s (hover to see current wind gust speed)